TimeMST,TemperatureF,Dew PointF,Humidity,Sea Level PressureIn,VisibilityMPH,Wind Direction,Wind SpeedMPH,Gust SpeedMPH,PrecipitationIn,Events,Conditions,WindDirDegrees,DateUTC
12:53 AM,34.0,23.0,64,29.96,10.0,NE,6.9,-,N/A,,Clear,50,2012-11-21 07:53:00
1:53 AM,37.0,24.1,59,29.95,10.0,Calm,Calm,-,N/A,,Clear,0,2012-11-21 08:53:00
2:53 AM,36.0,23.0,59,29.94,10.0,North,3.5,-,N/A,,Clear,10,2012-11-21 09:53:00
3:53 AM,37.0,23.0,57,29.94,10.0,Calm,Calm,-,N/A,,Clear,0,2012-11-21 10:53:00
4:53 AM,39.9,23.0,51,29.94,10.0,SW,3.5,-,N/A,,Clear,220,2012-11-21 11:53:00
5:53 AM,37.9,23.0,55,29.95,10.0,NNE,4.6,-,N/A,,Clear,30,2012-11-21 12:53:00
6:53 AM,39.0,23.0,53,29.95,10.0,SW,6.9,-,N/A,,Clear,230,2012-11-21 13:53:00
7:53 AM,46.0,21.9,39,29.94,10.0,WSW,9.2,-,N/A,,Clear,250,2012-11-21 14:53:00
8:53 AM,55.0,23.0,29,29.91,10.0,WSW,4.6,-,N/A,,Clear,250,2012-11-21 15:53:00
9:53 AM,63.0,19.0,18,29.87,10.0,WSW,9.2,-,N/A,,Clear,250,2012-11-21 16:53:00
10:53 AM,66.0,18.0,16,29.84,10.0,West,6.9,-,N/A,,Clear,280,2012-11-21 17:53:00
11:53 AM,66.9,15.1,14,29.81,10.0,SW,12.7,23.0,N/A,,Clear,230,2012-11-21 18:53:00
12:53 PM,68.0,12.9,12,29.80,10.0,WSW,17.3,23.0,N/A,,Clear,250,2012-11-21 19:53:00
1:53 PM,66.9,12.9,12,29.78,10.0,WSW,8.1,-,N/A,,Clear,250,2012-11-21 20:53:00
3:53 PM,62.1,15.1,16,29.77,10.0,WNW,6.9,-,N/A,,Clear,300,2012-11-21 22:53:00
4:53 PM,63.0,15.1,16,29.77,10.0,Variable,3.5,-,N/A,,Clear,0,2012-11-21 23:53:00
5:53 PM,57.9,17.1,20,29.79,10.0,West,9.2,-,N/A,,Clear,270,2012-11-22 00:53:00
6:53 PM,55.9,17.1,22,29.80,10.0,WSW,5.8,-,N/A,,Clear,240,2012-11-22 01:53:00
7:53 PM,55.9,17.1,22,29.80,10.0,NNW,5.8,-,N/A,,Clear,330,2012-11-22 02:53:00
8:53 PM,52.0,17.1,25,29.78,10.0,NW,9.2,-,N/A,,Clear,310,2012-11-22 03:53:00
9:53 PM,48.0,18.0,30,29.77,10.0,West,6.9,-,N/A,,Clear,270,2012-11-22 04:53:00
10:53 PM,50.0,19.9,31,29.76,10.0,West,12.7,-,N/A,,Clear,260,2012-11-22 05:53:00
11:53 PM,55.0,19.0,24,29.76,10.0,West,16.1,-,N/A,,Clear,270,2012-11-22 06:53:00